Time;durP1;ratioP1;P1;durP2;ratioP2;P2;SDS_P1;SDS_P2;PMS_P1;PMS_P2;Temp;Humidity;BMP_temperature;BMP_pressure;BME280_temperature;BME280_humidity;BME280_pressure;Samples;Min_cycle;Max_cycle;Signal;HPM_P1;HPM_P2
2021/07/26 00:02:11;;;;;;;14.00;12.43;;;;;;;18.38;85.31;100966.55;1738434;81;21123;-75
2021/07/26 00:04:38;;;;;;;15.40;13.73;;;;;;;18.34;85.28;100973.10;1730090;81;21515;-75
2021/07/26 00:07:04;;;;;;;16.30;13.87;;;;;;;18.32;85.30;100971.80;1737617;80;21088;-75
2021/07/26 00:09:38;;;;;;;16.67;13.87;;;;;;;18.30;85.37;100973.45;1740262;81;21523;-75
2021/07/26 00:12:05;;;;;;;15.87;13.70;;;;;;;18.27;85.41;100972.70;1740718;81;21110;-76
2021/07/26 00:14:34;;;;;;;14.97;13.37;;;;;;;18.24;85.55;100980.84;1734718;81;21091;-76
2021/07/26 00:17:00;;;;;;;15.37;13.40;;;;;;;18.21;85.61;100976.03;1743496;80;21115;-74
2021/07/26 00:19:28;;;;;;;15.00;13.33;;;;;;;18.18;85.74;100973.92;1739986;81;21059;-75
2021/07/26 00:21:55;;;;;;;17.17;13.73;;;;;;;18.16;85.85;100975.31;1743507;81;21063;-75
2021/07/26 00:24:23;;;;;;;15.03;13.37;;;;;;;18.14;85.92;100977.53;1736210;81;21095;-74
2021/07/26 00:26:50;;;;;;;17.20;13.70;;;;;;;18.11;86.00;100978.12;1751710;81;21055;-75
2021/07/26 00:29:18;;;;;;;15.67;14.03;;;;;;;18.09;86.08;100977.05;1736108;81;21032;-74
2021/07/26 00:31:46;;;;;;;17.57;13.93;;;;;;;18.07;86.14;100979.83;1756832;81;21124;-75
2021/07/26 00:34:20;;;;;;;15.83;13.70;;;;;;;18.04;86.26;100986.06;1741353;81;21137;-75
2021/07/26 00:36:50;;;;;;;15.40;13.80;;;;;;;18.01;86.42;100975.05;1746472;80;21098;-73
2021/07/26 00:39:20;;;;;;;14.60;12.67;;;;;;;17.99;86.59;100980.73;1741809;80;21546;-74
2021/07/26 00:41:47;;;;;;;17.03;13.33;;;;;;;17.95;86.90;100977.02;1738318;81;21166;-74
2021/07/26 00:44:15;;;;;;;16.40;14.70;;;;;;;17.86;87.38;100974.73;1740887;81;21474;-74
2021/07/26 00:46:41;;;;;;;15.10;13.43;;;;;;;17.80;87.87;100973.21;1745474;81;21131;-74
2021/07/26 00:49:10;;;;;;;16.33;13.30;;;;;;;17.77;88.24;100976.53;1745193;80;20976;-73
2021/07/26 00:51:43;;;;;;;15.50;13.73;;;;;;;17.75;88.59;100980.03;1749633;81;21000;-74
2021/07/26 00:54:10;;;;;;;18.97;14.93;;;;;;;17.72;88.94;100975.22;1740160;81;20973;-74
2021/07/26 00:56:37;;;;;;;22.50;15.23;;;;;;;17.70;89.15;100979.58;1743623;81;21566;-73
2021/07/26 00:59:04;;;;;;;16.33;14.13;;;;;;;17.70;89.33;100972.83;1716047;81;21016;-74
2021/07/26 01:01:31;;;;;;;18.27;15.17;;;;;;;17.69;89.44;100974.45;1725533;81;21696;-73
2021/07/26 01:03:57;;;;;;;18.27;14.97;;;;;;;17.68;89.54;100968.25;1735884;81;21063;-73
2021/07/26 01:06:24;;;;;;;18.30;14.10;;;;;;;17.67;89.69;100968.01;1745037;81;21080;-73
2021/07/26 01:08:51;;;;;;;19.47;14.60;;;;;;;17.67;89.84;100963.95;1746350;80;21497;-73
2021/07/26 01:11:19;;;;;;;18.10;14.90;;;;;;;17.67;89.98;100965.83;1747886;81;21074;-73
2021/07/26 01:13:46;;;;;;;17.67;15.77;;;;;;;17.67;90.16;100965.83;1739870;81;21071;-73
2021/07/26 01:16:14;;;;;;;17.80;15.03;;;;;;;17.66;90.32;100962.33;1737927;81;21071;-73
2021/07/26 01:18:41;;;;;;;16.97;14.23;;;;;;;17.66;90.47;100962.33;1743053;80;21527;-73
2021/07/26 01:21:11;;;;;;;16.67;14.57;;;;;;;17.66;90.62;100964.23;1736158;81;21514;-73
2021/07/26 01:23:44;;;;;;;18.40;14.47;;;;;;;17.65;90.74;100962.09;1742922;81;21092;-73
2021/07/26 01:26:16;;;;;;;17.43;14.27;;;;;;;17.64;90.82;100963.19;1742428;81;21052;-76
2021/07/26 01:28:45;;;;;;;17.13;14.63;;;;;;;17.63;90.88;100959.42;1745600;81;21088;-76
2021/07/26 01:31:12;;;;;;;16.13;14.27;;;;;;;17.61;90.98;100954.88;1740616;81;21049;-75
2021/07/26 01:33:41;;;;;;;16.03;14.43;;;;;;;17.60;91.15;100959.45;1747128;81;22474;-75
2021/07/26 01:36:08;;;;;;;16.83;15.13;;;;;;;17.59;91.38;100954.60;1737301;81;21056;-75
2021/07/26 01:38:34;;;;;;;17.70;15.80;;;;;;;17.61;91.55;100954.88;1734109;81;21565;-73
2021/07/26 01:41:06;;;;;;;16.87;13.93;;;;;;;17.59;91.61;100955.95;1736532;81;21574;-73
2021/07/26 01:43:51;;;;;;;18.00;14.40;;;;;;;17.56;91.64;100956.54;1744470;81;21084;-73
2021/07/26 01:46:22;;;;;;;17.93;14.90;;;;;;;17.52;91.76;100955.53;1747093;81;21329;-74
2021/07/26 01:49:23;;;;;;;17.17;14.57;;;;;;;17.51;91.75;100957.98;1752200;81;21549;-75
2021/07/26 01:51:50;;;;;;;18.00;14.70;;;;;;;17.51;91.69;100957.98;1740134;81;21973;-74
2021/07/26 01:54:16;;;;;;;15.77;14.13;;;;;;;17.53;91.67;100956.33;1743248;81;21095;-74
2021/07/26 01:56:44;;;;;;;16.97;13.80;;;;;;;17.52;91.62;100952.83;1733679;81;21036;-75
2021/07/26 01:59:10;;;;;;;16.23;13.87;;;;;;;17.52;91.60;100958.78;1745667;80;21539;-75
2021/07/26 02:01:37;;;;;;;15.67;13.97;;;;;;;17.50;91.62;100952.30;1740349;81;21028;-73
2021/07/26 02:04:04;;;;;;;16.40;14.30;;;;;;;17.48;91.74;100958.56;1738200;81;21606;-74
2021/07/26 02:06:31;;;;;;;15.53;13.47;;;;;;;17.44;91.88;100961.61;1735428;81;21028;-73
2021/07/26 02:08:59;;;;;;;16.33;14.63;;;;;;;17.40;92.08;100960.56;1750030;80;21630;-74
2021/07/26 02:11:27;;;;;;;18.73;14.23;;;;;;;17.37;92.32;100963.84;1739604;81;21567;-75
2021/07/26 02:13:53;;;;;;;18.80;14.40;;;;;;;17.35;92.44;100966.85;1737559;81;21569;-74
2021/07/26 02:16:23;;;;;;;17.23;13.93;;;;;;;17.35;92.41;100967.41;1741480;81;20969;-74
2021/07/26 02:18:50;;;;;;;15.97;13.77;;;;;;;17.33;92.34;100966.88;1739132;81;21511;-74
2021/07/26 02:21:17;;;;;;;18.53;14.70;;;;;;;17.29;92.29;100968.02;1745969;81;21515;-73
2021/07/26 02:23:45;;;;;;;18.10;15.40;;;;;;;17.26;92.16;100963.20;1735990;81;22041;-74
2021/07/26 02:26:12;;;;;;;17.17;15.37;;;;;;;17.23;92.07;100967.03;1741837;80;21197;-76
2021/07/26 02:28:39;;;;;;;18.13;15.97;;;;;;;17.19;92.00;100966.02;1754160;81;21571;-76
2021/07/26 02:31:06;;;;;;;18.17;16.00;;;;;;;17.15;91.87;100966.34;1738217;80;21495;-75
2021/07/26 02:33:33;;;;;;;17.50;15.67;;;;;;;17.13;91.76;100965.27;1741653;81;21036;-75
2021/07/26 02:35:59;;;;;;;16.43;14.70;;;;;;;17.11;91.66;100974.22;1742878;81;21806;-72
2021/07/26 02:38:26;;;;;;;17.67;15.93;;;;;;;17.11;91.62;100972.87;1738075;81;21130;-72
2021/07/26 02:40:53;;;;;;;16.87;15.17;;;;;;;17.09;91.57;100975.84;1739382;80;21518;-72
2021/07/26 02:43:20;;;;;;;17.17;14.40;;;;;;;17.09;91.57;100971.80;1745793;81;21103;-72
2021/07/26 02:45:50;;;;;;;16.80;14.80;;;;;;;17.10;91.57;100976.09;1741282;81;21503;-72
2021/07/26 02:48:16;;;;;;;16.20;14.60;;;;;;;17.13;91.59;100974.72;1750427;81;22166;-72
2021/07/26 02:50:43;;;;;;;18.13;15.27;;;;;;;17.16;91.60;100980.09;1734931;80;21032;-72
2021/07/26 02:53:09;;;;;;;16.47;14.40;;;;;;;17.18;91.57;100979.27;1742066;80;21522;-72
2021/07/26 02:55:39;;;;;;;17.03;15.27;;;;;;;17.20;91.50;100981.91;1737132;81;21150;-72
2021/07/26 02:58:06;;;;;;;17.33;15.53;;;;;;;17.23;91.36;100981.88;1738247;81;21108;-72
2021/07/26 03:00:32;;;;;;;18.33;15.73;;;;;;;17.26;91.30;100978.59;1751487;80;22143;-72
2021/07/26 03:02:59;;;;;;;18.60;16.63;;;;;;;17.31;91.18;100974.49;1735989;81;20948;-72
2021/07/26 03:05:27;;;;;;;18.63;16.60;;;;;;;17.35;91.06;100975.51;1754096;81;21079;-72
2021/07/26 03:07:53;;;;;;;19.80;17.80;;;;;;;17.40;90.93;100978.11;1737519;81;21135;-73
2021/07/26 03:10:21;;;;;;;20.77;18.60;;;;;;;17.47;90.86;100981.80;1751430;81;21104;-72
2021/07/26 03:12:47;;;;;;;20.07;17.97;;;;;;;17.52;90.66;100981.73;1739236;80;21103;-72
2021/07/26 03:15:15;;;;;;;20.93;18.67;;;;;;;17.58;90.42;100974.61;1737194;81;21008;-72
2021/07/26 03:17:41;;;;;;;19.87;17.73;;;;;;;17.67;90.18;100976.64;1747155;81;21075;-72
2021/07/26 03:20:09;;;;;;;20.97;18.53;;;;;;;17.74;90.00;100975.19;1734852;81;21087;-72
2021/07/26 03:23:02;;;;;;;20.90;18.80;;;;;;;17.81;89.80;100973.48;1743826;80;21056;-73
2021/07/26 03:25:32;;;;;;;21.90;19.67;;;;;;;17.89;89.62;100978.20;1732405;81;21125;-72
2021/07/26 03:28:00;;;;;;;23.13;20.73;;;;;;;17.98;89.44;100976.98;1732668;81;21012;-72
2021/07/26 03:30:27;;;;;;;23.50;20.87;;;;;;;18.04;89.14;100976.60;1732262;81;21201;-72
2021/07/26 03:32:54;;;;;;;24.00;21.53;;;;;;;18.13;88.64;100978.61;1739441;80;21021;-72
2021/07/26 03:35:23;;;;;;;23.90;21.40;;;;;;;18.19;88.19;100977.42;1746329;81;21076;-72
2021/07/26 03:37:51;;;;;;;26.77;24.03;;;;;;;18.27;87.93;100976.20;1738105;81;21068;-72
2021/07/26 03:40:20;;;;;;;26.73;23.63;;;;;;;18.35;87.62;100985.52;1750423;81;21478;-72
2021/07/26 03:42:47;;;;;;;28.23;24.17;;;;;;;18.42;87.25;100982.42;1741047;80;21111;-72
2021/07/26 03:45:16;;;;;;;25.03;22.40;;;;;;;18.49;86.83;100989.58;1743887;81;21004;-72
2021/07/26 03:47:43;;;;;;;24.73;22.10;;;;;;;18.58;86.36;100992.41;1744687;81;21562;-73
2021/07/26 03:50:10;;;;;;;25.90;22.03;;;;;;;18.67;86.02;100987.91;1743620;81;21510;-73
2021/07/26 03:52:48;;;;;;;25.43;22.83;;;;;;;18.75;85.37;100989.92;1736453;80;21073;-73
2021/07/26 03:55:23;;;;;;;26.97;24.07;;;;;;;18.86;84.82;100993.25;1745938;81;21662;-72
2021/07/26 03:57:51;;;;;;;24.47;21.77;;;;;;;18.97;84.74;100995.43;1740399;81;21032;-73
2021/07/26 04:00:21;;;;;;;22.30;20.00;;;;;;;19.08;84.55;101002.78;1738979;81;21016;-72
2021/07/26 04:08:24;;;;;;;20.70;18.57;;;;;;;19.39;83.81;100999.42;1740851;81;21150;-73
2021/07/26 04:11:08;;;;;;;22.60;19.98;;;;;;;19.48;83.25;100999.48;1755433;81;21012;-72
2021/07/26 04:13:32;;;;;;;21.90;19.60;;;;;;;19.57;82.90;100995.73;1744812;81;21266;-73
2021/07/26 04:15:58;;;;;;;20.37;18.27;;;;;;;19.68;82.78;101007.20;1753838;81;21111;-73
2021/07/26 04:18:25;;;;;;;21.23;19.03;;;;;;;19.75;82.87;101004.85;1757649;81;21036;-73
2021/07/26 04:20:52;;;;;;;22.40;19.97;;;;;;;19.81;82.44;101000.09;1740664;81;21161;-74
2021/07/26 04:23:19;;;;;;;22.47;20.27;;;;;;;19.91;82.13;101006.08;1751487;80;21017;-73
2021/07/26 04:25:48;;;;;;;23.13;20.80;;;;;;;20.02;82.04;101005.27;1749466;81;21044;-73
2021/07/26 04:28:16;;;;;;;22.20;20.00;;;;;;;20.14;81.92;101004.72;1739578;81;21146;-73
2021/07/26 04:30:43;;;;;;;21.97;19.80;;;;;;;20.29;81.87;101011.08;1745462;80;22196;-72
2021/07/26 04:33:11;;;;;;;23.40;20.97;;;;;;;20.41;81.60;100999.66;1749503;80;21040;-74
2021/07/26 04:35:38;;;;;;;21.53;19.23;;;;;;;20.56;81.52;100997.91;1743611;81;20973;-74
2021/07/26 04:38:04;;;;;;;22.27;20.07;;;;;;;20.70;81.21;100999.73;1748708;81;20996;-74
2021/07/26 04:40:31;;;;;;;21.30;19.10;;;;;;;20.83;80.93;101001.53;1747707;81;21083;-73
2021/07/26 04:42:58;;;;;;;20.30;18.23;;;;;;;20.95;80.04;101001.70;1757667;80;20941;-74
2021/07/26 04:45:25;;;;;;;21.77;19.47;;;;;;;21.04;79.07;101002.53;1743402;81;21115;-74
2021/07/26 04:47:51;;;;;;;21.33;19.23;;;;;;;;;;1739711;81;21029;-74
2021/07/26 04:50:18;;;;;;;20.63;18.43;;;;;;;21.25;78.04;101000.56;1756117;81;21099;-74
2021/07/26 04:52:44;;;;;;;19.70;17.40;;;;;;;21.38;77.64;101007.00;1739967;81;21506;-74
2021/07/26 04:55:12;;;;;;;21.33;19.07;;;;;;;21.49;77.62;101008.30;1741554;81;20953;-74
2021/07/26 04:57:39;;;;;;;20.50;18.40;;;;;;;21.58;77.76;101013.16;1749643;81;20988;-74
2021/07/26 05:00:07;;;;;;;21.97;18.97;;;;;;;21.70;77.50;101007.09;1736562;81;21475;-75
2021/07/26 05:02:34;;;;;;;21.23;19.23;;;;;;;21.84;77.40;101010.42;1736932;81;21526;-73
2021/07/26 05:05:03;;;;;;;20.50;18.43;;;;;;;21.97;77.00;101009.45;1736079;81;21128;-73
2021/07/26 05:07:30;;;;;;;18.80;16.90;;;;;;;22.11;76.45;101001.12;1748431;81;21103;-72
2021/07/26 05:09:57;;;;;;;20.20;18.17;;;;;;;22.26;75.87;101000.38;1740897;81;21456;-73
2021/07/26 05:12:23;;;;;;;22.40;20.20;;;;;;;22.30;75.54;100995.88;1738582;81;21060;-72
2021/07/26 05:14:52;;;;;;;21.30;19.30;;;;;;;22.39;75.15;101001.53;1743430;80;21072;-75
2021/07/26 05:17:26;;;;;;;20.13;18.13;;;;;;;22.54;75.03;100999.37;1740154;81;21519;-75
2021/07/26 05:19:54;;;;;;;21.33;19.23;;;;;;;22.65;74.46;100997.34;1751705;81;20976;-73
2021/07/26 05:22:21;;;;;;;19.33;17.40;;;;;;;22.75;74.12;100988.56;1755570;81;20956;-73
2021/07/26 05:24:50;;;;;;;19.90;17.93;;;;;;;22.86;73.89;100984.33;1743606;80;21143;-73
2021/07/26 05:27:17;;;;;;;18.37;16.57;;;;;;;23.02;73.82;100985.38;1736201;81;21107;-74
2021/07/26 05:29:44;;;;;;;19.50;17.33;;;;;;;23.15;73.45;100981.60;1733742;81;21577;-74
2021/07/26 05:32:11;;;;;;;19.33;17.33;;;;;;;23.25;72.52;100974.17;1740451;81;21001;-74
2021/07/26 05:34:39;;;;;;;18.70;16.67;;;;;;;23.36;72.67;100972.08;1735759;80;21150;-75
2021/07/26 05:37:06;;;;;;;17.57;15.90;;;;;;;23.48;71.71;100976.78;1744684;81;21009;-74
2021/07/26 05:39:33;;;;;;;18.93;17.03;;;;;;;23.55;70.58;100970.22;1750598;81;21016;-74
2021/07/26 05:42:01;;;;;;;19.20;17.20;;;;;;;23.67;69.91;100964.59;1746185;81;21547;-74
2021/07/26 05:44:28;;;;;;;16.63;15.00;;;;;;;23.82;69.55;100968.89;1749268;80;21094;-74
2021/07/26 05:46:55;;;;;;;15.03;13.43;;;;;;;23.97;68.66;100968.80;1751405;81;21100;-73
2021/07/26 05:49:22;;;;;;;14.17;12.77;;;;;;;24.08;67.22;100963.13;1747356;81;21009;-74
2021/07/26 05:51:50;;;;;;;14.17;12.20;;;;;;;24.19;65.76;100955.32;1750556;81;21040;-72
2021/07/26 05:54:16;;;;;;;12.23;11.03;;;;;;;24.29;64.23;100963.06;1707821;81;21180;-72
2021/07/26 05:56:46;;;;;;;12.47;11.17;;;;;;;24.34;63.53;100966.92;1737783;81;21131;-73
2021/07/26 05:59:12;;;;;;;14.37;11.33;;;;;;;24.38;62.43;100961.57;1748396;81;21056;-73
2021/07/26 06:01:48;;;;;;;13.33;11.93;;;;;;;24.48;62.50;100961.72;1735926;81;21009;-73
2021/07/26 06:04:22;;;;;;;13.27;11.83;;;;;;;24.60;62.53;100963.09;1743058;80;21095;-73
2021/07/26 06:06:52;;;;;;;13.23;11.93;;;;;;;24.71;62.11;100968.88;1740696;81;21075;-73
2021/07/26 06:09:21;;;;;;;13.67;11.23;;;;;;;24.86;61.96;100968.77;1734916;81;21064;-72
2021/07/26 06:11:49;;;;;;;13.13;11.40;;;;;;;25.01;61.69;100966.70;1733667;81;21100;-74
2021/07/26 06:14:16;;;;;;;14.67;11.93;;;;;;;25.18;61.31;100970.56;1744169;81;21043;-75
2021/07/26 06:16:47;;;;;;;12.50;11.27;;;;;;;25.34;60.89;100971.20;1737918;81;21031;-74
2021/07/26 06:19:15;;;;;;;12.00;10.60;;;;;;;25.48;60.13;100971.60;1750780;81;21112;-73
2021/07/26 06:21:51;;;;;;;13.47;11.40;;;;;;;25.64;59.40;100975.76;1736588;81;21071;-73
2021/07/26 06:24:20;;;;;;;12.37;10.80;;;;;;;25.73;57.90;100973.09;1745802;80;21083;-73
2021/07/26 06:26:47;;;;;;;13.40;10.40;;;;;;;25.81;57.52;100978.20;1742598;81;21068;-74
2021/07/26 06:29:14;;;;;;;13.37;10.63;;;;;;;25.94;57.37;100979.73;1747372;81;21063;-76
2021/07/26 06:31:43;;;;;;;10.50;9.30;;;;;;;26.10;57.43;100987.17;1740796;81;21602;-75
2021/07/26 06:34:10;;;;;;;9.47;8.57;;;;;;;26.23;56.08;100980.47;1745511;81;21008;-73
2021/07/26 06:36:39;;;;;;;10.07;9.13;;;;;;;26.31;54.65;100982.22;1742906;80;20988;-76
2021/07/26 06:39:08;;;;;;;9.87;8.90;;;;;;;26.33;53.62;100989.52;1750624;81;21560;-78
2021/07/26 06:41:36;;;;;;;10.10;9.10;;;;;;;26.33;53.61;100987.36;1739170;81;21630;-77
2021/07/26 06:44:03;;;;;;;10.20;9.20;;;;;;;26.28;53.59;100993.88;1719301;81;21228;-76
2021/07/26 06:46:32;;;;;;;12.13;9.53;;;;;;;26.26;54.26;101000.30;1738468;80;20974;-80
2021/07/26 06:48:58;;;;;;;10.00;9.00;;;;;;;26.25;54.91;100997.32;1742154;81;21618;-81
2021/07/26 06:51:26;;;;;;;10.03;9.03;;;;;;;26.27;54.26;100997.78;1742537;81;20992;-79
2021/07/26 06:53:53;;;;;;;11.63;9.53;;;;;;;26.32;54.29;101008.45;1743667;80;21039;-78
2021/07/26 06:56:20;;;;;;;10.10;9.07;;;;;;;26.41;53.99;101007.70;1749989;81;21608;-77
2021/07/26 06:58:47;;;;;;;12.53;10.27;;;;;;;26.46;53.53;101016.25;1740588;81;21202;-76
2021/07/26 07:01:15;;;;;;;10.17;9.17;;;;;;;26.52;53.98;101009.94;1741615;81;21091;-76
2021/07/26 07:03:45;;;;;;;9.33;8.23;;;;;;;26.55;53.13;101015.50;1746715;80;21637;-75
2021/07/26 07:06:17;;;;;;;9.77;8.23;;;;;;;26.58;52.88;101010.69;1742566;81;21056;-76
2021/07/26 07:08:45;;;;;;;9.87;8.33;;;;;;;26.65;52.29;101012.80;1743119;81;21160;-72
2021/07/26 07:11:16;;;;;;;10.47;9.17;;;;;;;26.66;50.83;101017.94;1740426;81;21056;-74
2021/07/26 07:13:50;;;;;;;9.00;8.10;;;;;;;26.62;51.26;101018.98;1737742;80;21437;-74
2021/07/26 07:16:20;;;;;;;10.73;8.73;;;;;;;26.59;50.87;101028.73;1739965;81;21166;-74
2021/07/26 07:18:55;;;;;;;10.08;8.45;;;;;;;26.65;51.27;101027.88;1745475;81;21554;-72
2021/07/26 07:21:31;;;;;;;9.83;8.83;;;;;;;26.80;51.04;101021.59;1736921;81;21839;-73
2021/07/26 07:24:00;;;;;;;9.57;8.60;;;;;;;26.99;51.24;101020.86;1737627;80;21047;-73
2021/07/26 07:26:28;;;;;;;10.70;9.70;;;;;;;27.16;50.33;101023.80;1741048;81;21099;-74
2021/07/26 07:28:59;;;;;;;9.53;8.63;;;;;;;27.23;50.00;101023.95;1746660;81;21111;-79
2021/07/26 07:31:27;;;;;;;11.63;9.50;;;;;;;27.29;50.32;101024.47;1739917;80;21016;-73
2021/07/26 07:33:56;;;;;;;9.87;8.83;;;;;;;27.35;50.38;101027.95;1743227;80;21796;-73
2021/07/26 07:36:23;;;;;;;11.50;8.80;;;;;;;27.47;50.47;101029.73;1736331;81;21480;-73
2021/07/26 07:38:50;;;;;;;11.73;9.33;;;;;;;27.59;50.01;101032.93;1745843;81;21060;-73
2021/07/26 07:41:18;;;;;;;13.30;9.47;;;;;;;27.63;48.63;101032.42;1748665;80;21475;-73
2021/07/26 07:43:45;;;;;;;10.53;8.60;;;;;;;27.65;49.12;101032.86;1738964;81;21689;-73
2021/07/26 07:46:12;;;;;;;11.30;8.17;;;;;;;27.70;48.54;101030.39;1734766;81;21587;-74
2021/07/26 07:48:40;;;;;;;12.77;8.87;;;;;;;27.73;48.85;101033.20;1748200;80;21056;-74
2021/07/26 07:51:09;;;;;;;10.70;8.70;;;;;;;27.84;49.55;101025.23;1741784;81;21134;-74
2021/07/26 07:53:36;;;;;;;12.50;8.67;;;;;;;28.01;48.47;101027.51;1741954;81;21071;-72
2021/07/26 07:56:04;;;;;;;8.93;7.77;;;;;;;28.18;48.06;101020.74;1737433;80;21047;-73
2021/07/26 07:58:34;;;;;;;11.30;8.77;;;;;;;28.31;47.05;101021.95;1736180;81;21993;-73
2021/07/26 08:01:00;;;;;;;13.97;9.73;;;;;;;28.27;46.78;101026.00;1742273;81;21122;-73
2021/07/26 08:03:27;;;;;;;13.77;9.43;;;;;;;28.21;47.24;101026.87;1739971;81;21037;-73
2021/07/26 08:05:54;;;;;;;10.63;9.00;;;;;;;28.25;47.12;101029.10;1735541;81;21096;-74
2021/07/26 08:08:21;;;;;;;10.90;8.93;;;;;;;28.38;46.55;101025.59;1736700;81;21546;-73
2021/07/26 08:10:48;;;;;;;10.70;8.60;;;;;;;28.51;46.84;101028.98;1747022;81;21538;-73
2021/07/26 08:13:22;;;;;;;11.40;8.43;;;;;;;28.68;47.21;101033.17;1739020;81;21075;-72
2021/07/26 08:15:53;;;;;;;12.23;9.00;;;;;;;28.84;46.31;101022.03;1743023;81;21701;-74
2021/07/26 08:18:21;;;;;;;11.13;9.10;;;;;;;28.99;45.98;101023.84;1739950;81;21111;-73
2021/07/26 08:20:48;;;;;;;12.13;8.60;;;;;;;29.13;45.70;101022.68;1745499;81;21508;-73
2021/07/26 08:23:14;;;;;;;12.13;8.47;;;;;;;29.25;44.69;101030.48;1746769;81;21129;-74
2021/07/26 08:25:41;;;;;;;10.63;8.93;;;;;;;29.33;45.34;101026.08;1739623;81;21023;-74
2021/07/26 08:28:07;;;;;;;12.40;8.67;;;;;;;29.41;44.19;101025.58;1743564;81;21154;-72
2021/07/26 08:30:36;;;;;;;10.30;8.50;;;;;;;29.51;44.22;101022.75;1745466;81;21037;-73
2021/07/26 08:33:03;;;;;;;11.67;8.13;;;;;;;29.54;44.81;101026.92;1731647;81;21626;-74
2021/07/26 08:35:30;;;;;;;13.22;8.95;;;;;;;29.63;44.06;101030.21;1745010;81;21538;-73
2021/07/26 08:37:56;;;;;;;12.00;8.73;;;;;;;29.72;43.55;101025.01;1735485;81;21166;-74
2021/07/26 08:40:25;;;;;;;11.37;8.40;;;;;;;29.80;43.89;101019.19;1749218;81;21147;-73
2021/07/26 08:42:52;;;;;;;13.00;8.98;;;;;;;29.90;42.87;101030.11;1743482;81;21020;-73
2021/07/26 08:45:19;;;;;;;10.30;8.25;;;;;;;29.99;41.66;101023.72;1748917;81;21046;-74
2021/07/26 08:47:46;;;;;;;11.90;8.13;;;;;;;30.03;41.23;101025.91;1742552;81;21098;-73
2021/07/26 08:50:18;;;;;;;16.50;8.68;;;;;;;30.03;40.96;101023.75;1732972;81;21653;-73
2021/07/26 08:52:48;;;;;;;13.18;8.45;;;;;;;29.98;40.07;101024.08;1738787;80;21064;-73
2021/07/26 08:55:23;;;;;;;11.80;7.53;;;;;;;29.95;40.50;101015.23;1756299;81;21039;-74
2021/07/26 08:57:51;;;;;;;9.58;7.08;;;;;;;30.03;41.33;101020.41;1740815;80;21024;-72
2021/07/26 09:00:20;;;;;;;12.98;7.30;;;;;;;30.14;39.86;101017.75;1742701;81;21627;-73
2021/07/26 09:02:46;;;;;;;12.35;8.00;;;;;;;30.23;40.62;101023.77;1733701;81;20976;-72
2021/07/26 09:05:14;;;;;;;9.08;7.40;;;;;;;30.33;39.68;101009.87;1734588;81;21606;-72
2021/07/26 09:07:42;;;;;;;13.43;7.15;;;;;;;30.38;39.72;101003.44;1738420;80;21593;-73
2021/07/26 09:10:19;;;;;;;12.80;7.20;;;;;;;30.48;39.69;101009.42;1742490;81;21596;-72
2021/07/26 09:12:48;;;;;;;9.73;7.25;;;;;;;30.59;38.42;101011.06;1745071;81;21546;-73
2021/07/26 09:15:30;;;;;;;11.95;7.00;;;;;;;30.66;39.50;101007.58;1738765;81;21167;-72
2021/07/26 09:18:01;;;;;;;11.90;6.72;;;;;;;30.72;38.42;101001.91;1741078;80;21028;-73
2021/07/26 09:20:33;;;;;;;12.10;6.78;;;;;;;30.72;36.73;101001.12;1741062;81;21080;-73
2021/07/26 09:23:16;;;;;;;9.50;6.80;;;;;;;30.74;37.50;101000.95;1744392;81;21521;-73
2021/07/26 09:25:48;;;;;;;8.83;7.00;;;;;;;30.83;38.08;101000.62;1739731;81;21137;-72
2021/07/26 09:28:20;;;;;;;8.43;6.50;;;;;;;30.85;37.13;101003.80;1742320;80;21028;-73
2021/07/26 09:30:51;;;;;;;8.23;6.45;;;;;;;30.87;36.97;100997.91;1747837;81;21132;-76
2021/07/26 09:33:30;;;;;;;7.60;6.78;;;;;;;30.93;36.52;100993.58;1751854;81;28508;-73
2021/07/26 09:36:23;;;;;;;7.30;6.53;;;;;;;31.05;36.23;100987.16;1744642;81;21036;-72
2021/07/26 09:38:58;;;;;;;7.08;6.03;;;;;;;31.16;35.55;100990.55;1721443;82;21617;-73
2021/07/26 09:41:52;;;;;;;8.80;6.60;;;;;;;31.21;36.16;100982.70;1743788;81;21572;-73
2021/07/26 09:44:24;;;;;;;10.82;6.42;;;;;;;31.19;35.93;100987.02;1734677;81;21121;-75
2021/07/26 09:46:51;;;;;;;;;;;;;;;31.23;36.22;100992.77;1745717;80;21135;-73
2021/07/26 09:49:19;;;;;;;11.05;7.05;;;;;;;31.28;35.63;100988.84;1746226;80;20163;-74
2021/07/26 09:52:08;;;;;;;8.33;6.90;;;;;;;31.34;37.29;100990.08;1736018;81;21535;-74
2021/07/26 09:54:44;;;;;;;12.87;7.20;;;;;;;31.37;35.81;100986.54;1753749;81;21563;-74
2021/07/26 09:57:26;;;;;;;8.98;6.62;;;;;;;31.42;36.22;100982.00;1743125;80;21119;-74
2021/07/26 09:59:55;;;;;;;8.75;6.55;;;;;;;31.48;35.28;100981.83;1738975;81;21086;-74
2021/07/26 10:02:28;;;;;;;9.90;7.10;;;;;;;31.51;35.50;100981.65;1741405;81;21143;-73
2021/07/26 10:04:51;;;;;;;9.23;6.75;;;;;;;31.41;34.95;100984.58;1742918;81;22183;-73
2021/07/26 10:07:19;;;;;;;12.63;7.45;;;;;;;31.37;35.74;100987.13;1752494;80;21551;-75
2021/07/26 10:09:47;;;;;;;10.13;7.35;;;;;;;31.46;34.90;100985.59;1744740;80;21110;-73
2021/07/26 10:12:19;;;;;;;9.15;6.92;;;;;;;31.60;34.97;100986.81;1760423;81;21549;-74
2021/07/26 10:14:47;;;;;;;11.08;6.67;;;;;;;31.72;34.42;100978.14;1741389;81;21075;-74
2021/07/26 10:17:14;;;;;;;9.45;6.97;;;;;;;31.83;33.28;100978.97;1748002;80;21124;-73
2021/07/26 10:19:42;;;;;;;7.67;6.35;;;;;;;31.91;33.42;100973.67;1744786;80;21591;-73
2021/07/26 10:22:15;;;;;;;8.50;6.92;;;;;;;32.02;34.62;100975.65;1749271;81;21068;-73
2021/07/26 10:24:51;;;;;;;9.85;6.37;;;;;;;32.06;33.67;100974.48;1731680;81;21000;-72
2021/07/26 10:27:24;;;;;;;10.48;6.65;;;;;;;32.17;34.47;100978.63;1741586;81;21590;-73
2021/07/26 10:29:55;;;;;;;10.60;6.47;;;;;;;32.32;34.01;100971.92;1744903;81;21115;-73
2021/07/26 10:32:33;;;;;;;7.80;6.03;;;;;;;32.46;32.63;100968.38;1737923;80;21051;-74
2021/07/26 10:35:04;;;;;;;7.55;6.42;;;;;;;32.57;32.07;100971.90;1734214;81;21724;-73
2021/07/26 10:37:45;;;;;;;7.75;6.30;;;;;;;32.56;31.36;100968.16;1739716;81;21500;-72
2021/07/26 10:40:30;;;;;;;8.55;6.37;;;;;;;32.51;32.11;100969.94;1742840;81;21024;-71
2021/07/26 10:43:02;;;;;;;8.73;6.55;;;;;;;32.56;32.16;100970.93;1744032;81;21518;-73
2021/07/26 10:45:38;;;;;;;8.33;5.97;;;;;;;32.66;32.08;100965.37;1744616;81;21504;-73
2021/07/26 10:48:31;;;;;;;8.35;6.10;;;;;;;32.78;32.19;100968.31;1741778;81;21118;-74
2021/07/26 10:51:02;;;;;;;8.18;6.08;;;;;;;32.95;30.80;100953.45;1742747;81;21025;-72
2021/07/26 10:53:40;;;;;;;8.38;6.40;;;;;;;32.95;30.80;100953.45;1752813;81;21068;-73
2021/07/26 10:56:11;;;;;;;8.08;6.47;;;;;;;33.08;30.88;100952.63;1753342;81;22186;-73
2021/07/26 10:59:00;;;;;;;7.30;6.05;;;;;;;33.08;30.88;100952.63;1744337;81;21431;-73
2021/07/26 11:01:34;;;;;;;8.68;5.87;;;;;;;33.20;30.88;100952.76;1741375;81;20988;-72
2021/07/26 11:04:00;;;;;;;11.22;6.75;;;;;;;33.35;30.92;100955.66;1754895;81;21099;-73
2021/07/26 11:06:42;;;;;;;9.08;6.28;;;;;;;33.41;30.73;100953.27;1744897;81;21063;-73
2021/07/26 11:09:32;;;;;;;7.75;6.53;;;;;;;33.46;30.87;100954.80;1744614;80;21160;-73
2021/07/26 11:11:55;;;;;;;6.20;5.60;;;;;;;33.37;29.62;100946.36;1742287;81;21111;-73
2021/07/26 11:14:22;;;;;;;7.33;5.87;;;;;;;33.16;29.70;100940.92;1747774;80;21117;-73
2021/07/26 11:16:56;;;;;;;8.48;6.25;;;;;;;33.02;30.63;100944.55;1717595;81;21009;-73
2021/07/26 11:19:52;;;;;;;8.23;6.45;;;;;;;33.01;30.75;100942.19;1737351;80;21170;-73
2021/07/26 11:22:21;;;;;;;8.50;6.47;;;;;;;33.10;30.32;100942.52;1745162;81;21150;-72
2021/07/26 11:24:50;;;;;;;7.65;6.17;;;;;;;33.09;31.36;100936.20;1748002;80;21170;-72
2021/07/26 11:27:24;;;;;;;7.62;6.42;;;;;;;32.98;31.17;100939.63;1739322;81;20977;-72
2021/07/26 11:29:53;;;;;;;6.40;5.70;;;;;;;32.93;30.62;100932.48;1737024;80;21032;-70
2021/07/26 11:32:22;;;;;;;7.33;5.58;;;;;;;32.93;30.62;100932.48;1744258;81;20941;-74